sensor_id;sensor_type;location;lat;lon;timestamp;temperature;humidity
15676;DHT22;7938;47.666;9.434;2022-07-05T04:00:52;17.00;99.90
15676;DHT22;7938;47.666;9.434;2022-07-05T04:03:19;17.00;99.90
15676;DHT22;7938;47.666;9.434;2022-07-05T04:05:46;17.00;99.90
15676;DHT22;7938;47.666;9.434;2022-07-05T04:08:13;17.00;99.90
15676;DHT22;7938;47.666;9.434;2022-07-05T04:10:40;17.00;99.90
15676;DHT22;7938;47.666;9.434;2022-07-05T04:13:07;17.10;99.90
15676;DHT22;7938;47.666;9.434;2022-07-05T04:15:34;17.10;99.90
15676;DHT22;7938;47.666;9.434;2022-07-05T04:18:02;17.10;99.90
15676;DHT22;7938;47.666;9.434;2022-07-05T04:20:29;17.20;99.90
15676;DHT22;7938;47.666;9.434;2022-07-05T04:22:56;17.20;99.90
15676;DHT22;7938;47.666;9.434;2022-07-05T04:25:23;17.20;99.90
15676;DHT22;7938;47.666;9.434;2022-07-05T04:27:51;17.20;99.90
15676;DHT22;7938;47.666;9.434;2022-07-05T04:30:21;17.20;99.90
15676;DHT22;7938;47.666;9.434;2022-07-05T04:32:48;17.20;99.90
15676;DHT22;7938;47.666;9.434;2022-07-05T04:35:17;17.20;99.90
15676;DHT22;7938;47.666;9.434;2022-07-05T04:37:44;17.30;99.90
15676;DHT22;7938;47.666;9.434;2022-07-05T04:40:12;17.30;99.90
15676;DHT22;7938;47.666;9.434;2022-07-05T04:42:40;17.40;99.90
15676;DHT22;7938;47.666;9.434;2022-07-05T04:45:08;17.40;99.90
15676;DHT22;7938;47.666;9.434;2022-07-05T04:47:35;17.50;99.90
15676;DHT22;7938;47.666;9.434;2022-07-05T04:50:03;17.40;99.90
15676;DHT22;7938;47.666;9.434;2022-07-05T04:52:32;17.40;99.90
15676;DHT22;7938;47.666;9.434;2022-07-05T04:54:59;17.40;99.90
15676;DHT22;7938;47.666;9.434;2022-07-05T04:57:26;17.30;99.90
15676;DHT22;7938;47.666;9.434;2022-07-05T04:59:53;17.30;99.90
15676;DHT22;7938;47.666;9.434;2022-07-05T05:02:20;17.30;99.90
15676;DHT22;7938;47.666;9.434;2022-07-05T05:04:47;17.30;99.90
15676;DHT22;7938;47.666;9.434;2022-07-05T05:07:14;17.20;99.90
15676;DHT22;7938;47.666;9.434;2022-07-05T05:09:42;17.20;99.90
15676;DHT22;7938;47.666;9.434;2022-07-05T05:12:09;17.20;99.90
15676;DHT22;7938;47.666;9.434;2022-07-05T05:14:36;17.10;99.90
15676;DHT22;7938;47.666;9.434;2022-07-05T05:17:03;17.10;99.90
15676;DHT22;7938;47.666;9.434;2022-07-05T05:19:30;17.20;99.90
15676;DHT22;7938;47.666;9.434;2022-07-05T05:21:57;17.20;99.90
15676;DHT22;7938;47.666;9.434;2022-07-05T05:24:24;17.30;99.90
15676;DHT22;7938;47.666;9.434;2022-07-05T05:26:52;17.30;99.90
15676;DHT22;7938;47.666;9.434;2022-07-05T05:29:19;17.30;99.90
15676;DHT22;7938;47.666;9.434;2022-07-05T05:31:46;17.30;99.90
15676;DHT22;7938;47.666;9.434;2022-07-05T05:34:13;17.40;99.90
15676;DHT22;7938;47.666;9.434;2022-07-05T05:36:40;17.40;99.90
15676;DHT22;7938;47.666;9.434;2022-07-05T05:39:07;17.20;99.90
15676;DHT22;7938;47.666;9.434;2022-07-05T05:41:33;17.60;99.90
15676;DHT22;7938;47.666;9.434;2022-07-05T05:44:02;17.60;99.90
15676;DHT22;7938;47.666;9.434;2022-07-05T05:46:29;17.70;99.90
15676;DHT22;7938;47.666;9.434;2022-07-05T05:48:56;17.90;99.90
15676;DHT22;7938;47.666;9.434;2022-07-05T05:51:24;18.00;99.90
15676;DHT22;7938;47.666;9.434;2022-07-05T05:53:51;18.20;99.90
15676;DHT22;7938;47.666;9.434;2022-07-05T05:56:18;18.40;99.90
15676;DHT22;7938;47.666;9.434;2022-07-05T05:58:45;18.40;99.90
15676;DHT22;7938;47.666;9.434;2022-07-05T06:01:13;18.50;99.90
15676;DHT22;7938;47.666;9.434;2022-07-05T06:03:40;18.50;99.90
15676;DHT22;7938;47.666;9.434;2022-07-05T06:06:07;18.60;99.90
15676;DHT22;7938;47.666;9.434;2022-07-05T06:08:34;18.70;99.90
15676;DHT22;7938;47.666;9.434;2022-07-05T06:11:01;18.90;99.90
15676;DHT22;7938;47.666;9.434;2022-07-05T06:13:30;19.10;99.90
15676;DHT22;7938;47.666;9.434;2022-07-05T06:15:56;19.40;99.90
15676;DHT22;7938;47.666;9.434;2022-07-05T06:18:25;19.60;99.90
15676;DHT22;7938;47.666;9.434;2022-07-05T06:20:52;19.70;99.90
15676;DHT22;7938;47.666;9.434;2022-07-05T06:23:19;20.00;99.90
15676;DHT22;7938;47.666;9.434;2022-07-05T06:25:46;19.90;99.90
15676;DHT22;7938;47.666;9.434;2022-07-05T06:28:12;20.00;99.90
15676;DHT22;7938;47.666;9.434;2022-07-05T06:30:39;19.90;99.90
15676;DHT22;7938;47.666;9.434;2022-07-05T06:33:06;20.00;99.90
15676;DHT22;7938;47.666;9.434;2022-07-05T06:35:35;20.00;99.90
15676;DHT22;7938;47.666;9.434;2022-07-05T06:38:03;19.90;99.90
15676;DHT22;7938;47.666;9.434;2022-07-05T06:40:32;19.90;99.90
15676;DHT22;7938;47.666;9.434;2022-07-05T06:43:01;20.00;99.90
15676;DHT22;7938;47.666;9.434;2022-07-05T06:45:28;20.10;99.90
15676;DHT22;7938;47.666;9.434;2022-07-05T06:47:56;20.10;99.90
15676;DHT22;7938;47.666;9.434;2022-07-05T06:50:23;20.20;99.90
15676;DHT22;7938;47.666;9.434;2022-07-05T06:52:52;20.20;99.90
15676;DHT22;7938;47.666;9.434;2022-07-05T06:55:19;20.30;99.90
15676;DHT22;7938;47.666;9.434;2022-07-05T06:57:46;20.60;99.90
15676;DHT22;7938;47.666;9.434;2022-07-05T07:00:16;21.00;99.90
15676;DHT22;7938;47.666;9.434;2022-07-05T07:02:43;21.00;99.90
15676;DHT22;7938;47.666;9.434;2022-07-05T07:05:10;21.00;99.90
15676;DHT22;7938;47.666;9.434;2022-07-05T07:07:37;20.90;99.90
15676;DHT22;7938;47.666;9.434;2022-07-05T07:10:23;20.80;99.90
15676;DHT22;7938;47.666;9.434;2022-07-05T07:12:50;20.90;99.90
15676;DHT22;7938;47.666;9.434;2022-07-05T07:15:17;21.00;99.90
15676;DHT22;7938;47.666;9.434;2022-07-05T07:17:44;20.80;99.90
15676;DHT22;7938;47.666;9.434;2022-07-05T07:20:11;21.10;99.90
15676;DHT22;7938;47.666;9.434;2022-07-05T07:22:38;21.10;99.90
15676;DHT22;7938;47.666;9.434;2022-07-05T07:25:05;21.20;99.90
15676;DHT22;7938;47.666;9.434;2022-07-05T07:27:42;21.30;99.90
15676;DHT22;7938;47.666;9.434;2022-07-05T07:30:11;21.10;99.90
15676;DHT22;7938;47.666;9.434;2022-07-05T07:32:38;20.80;99.90
15676;DHT22;7938;47.666;9.434;2022-07-05T07:35:06;20.50;99.90
15676;DHT22;7938;47.666;9.434;2022-07-05T07:37:33;20.60;99.90
15676;DHT22;7938;47.666;9.434;2022-07-05T07:40:00;20.60;99.90
15676;DHT22;7938;47.666;9.434;2022-07-05T07:42:28;20.40;99.90
15676;DHT22;7938;47.666;9.434;2022-07-05T07:44:57;20.20;99.90
15676;DHT22;7938;47.666;9.434;2022-07-05T07:47:23;20.20;99.90
15676;DHT22;7938;47.666;9.434;2022-07-05T07:49:50;20.20;99.90
15676;DHT22;7938;47.666;9.434;2022-07-05T07:52:17;20.20;99.90
15676;DHT22;7938;47.666;9.434;2022-07-05T07:54:44;20.20;99.90
15676;DHT22;7938;47.666;9.434;2022-07-05T07:57:11;20.40;99.90
15676;DHT22;7938;47.666;9.434;2022-07-05T07:59:38;20.60;99.90
15676;DHT22;7938;47.666;9.434;2022-07-05T08:02:06;20.40;99.90
15676;DHT22;7938;47.666;9.434;2022-07-05T08:04:33;20.50;99.90
15676;DHT22;7938;47.666;9.434;2022-07-05T08:07:00;20.70;99.90
15676;DHT22;7938;47.666;9.434;2022-07-05T08:09:29;21.00;99.90
15676;DHT22;7938;47.666;9.434;2022-07-05T08:11:56;21.00;99.90
15676;DHT22;7938;47.666;9.434;2022-07-05T08:14:23;21.10;99.90
15676;DHT22;7938;47.666;9.434;2022-07-05T08:16:50;21.00;99.90
15676;DHT22;7938;47.666;9.434;2022-07-05T08:19:19;21.00;99.90
15676;DHT22;7938;47.666;9.434;2022-07-05T08:22:04;21.00;99.90
15676;DHT22;7938;47.666;9.434;2022-07-05T08:24:33;21.10;99.90
15676;DHT22;7938;47.666;9.434;2022-07-05T08:27:00;21.30;99.90
15676;DHT22;7938;47.666;9.434;2022-07-05T08:29:27;21.30;99.90
15676;DHT22;7938;47.666;9.434;2022-07-05T08:31:53;21.40;99.90
15676;DHT22;7938;47.666;9.434;2022-07-05T08:34:22;21.40;99.90
15676;DHT22;7938;47.666;9.434;2022-07-05T08:36:49;21.40;99.90
15676;DHT22;7938;47.666;9.434;2022-07-05T08:39:17;21.10;99.90
15676;DHT22;7938;47.666;9.434;2022-07-05T08:41:48;21.10;99.90
15676;DHT22;7938;47.666;9.434;2022-07-05T08:44:18;21.20;99.90
15676;DHT22;7938;47.666;9.434;2022-07-05T08:46:47;21.40;99.90
15676;DHT22;7938;47.666;9.434;2022-07-05T08:49:14;21.50;99.90
15676;DHT22;7938;47.666;9.434;2022-07-05T08:51:43;21.40;99.90
15676;DHT22;7938;47.666;9.434;2022-07-05T08:54:11;21.40;99.90
15676;DHT22;7938;47.666;9.434;2022-07-05T08:56:41;21.90;99.90
15676;DHT22;7938;47.666;9.434;2022-07-05T08:59:08;21.50;99.90
15676;DHT22;7938;47.666;9.434;2022-07-05T09:01:36;21.50;99.90
15676;DHT22;7938;47.666;9.434;2022-07-05T09:04:06;21.50;99.90
15676;DHT22;7938;47.666;9.434;2022-07-05T09:06:35;21.70;99.90
15676;DHT22;7938;47.666;9.434;2022-07-05T09:09:04;21.60;99.90
15676;DHT22;7938;47.666;9.434;2022-07-05T09:11:36;21.70;99.90
15676;DHT22;7938;47.666;9.434;2022-07-05T09:14:05;21.70;99.90
15676;DHT22;7938;47.666;9.434;2022-07-05T09:16:33;21.70;99.90
15676;DHT22;7938;47.666;9.434;2022-07-05T09:19:32;22.00;99.90
15676;DHT22;7938;47.666;9.434;2022-07-05T09:22:03;22.10;99.90
15676;DHT22;7938;47.666;9.434;2022-07-05T09:24:33;22.10;99.90
15676;DHT22;7938;47.666;9.434;2022-07-05T09:27:09;22.20;99.90
15676;DHT22;7938;47.666;9.434;2022-07-05T09:29:36;22.10;99.90
15676;DHT22;7938;47.666;9.434;2022-07-05T09:32:04;22.20;99.90
15676;DHT22;7938;47.666;9.434;2022-07-05T09:34:31;22.20;99.90
15676;DHT22;7938;47.666;9.434;2022-07-05T09:37:02;22.30;99.90
15676;DHT22;7938;47.666;9.434;2022-07-05T09:39:39;22.20;99.90
15676;DHT22;7938;47.666;9.434;2022-07-05T09:42:14;22.30;99.90
15676;DHT22;7938;47.666;9.434;2022-07-05T09:44:44;22.30;99.90
15676;DHT22;7938;47.666;9.434;2022-07-05T09:47:12;22.40;99.90
15676;DHT22;7938;47.666;9.434;2022-07-05T09:49:42;22.50;99.90
15676;DHT22;7938;47.666;9.434;2022-07-05T09:52:10;22.50;99.90
15676;DHT22;7938;47.666;9.434;2022-07-05T09:54:39;22.50;99.90
15676;DHT22;7938;47.666;9.434;2022-07-05T09:57:06;22.60;99.90
15676;DHT22;7938;47.666;9.434;2022-07-05T09:59:36;22.60;99.90
15676;DHT22;7938;47.666;9.434;2022-07-05T10:02:03;22.60;99.90
15676;DHT22;7938;47.666;9.434;2022-07-05T10:04:30;22.60;99.90
15676;DHT22;7938;47.666;9.434;2022-07-05T10:06:56;22.70;99.90
15676;DHT22;7938;47.666;9.434;2022-07-05T10:09:24;22.80;99.90
15676;DHT22;7938;47.666;9.434;2022-07-05T10:11:52;22.80;99.90
15676;DHT22;7938;47.666;9.434;2022-07-05T10:14:20;22.90;99.90
15676;DHT22;7938;47.666;9.434;2022-07-05T10:16:54;23.00;99.90
15676;DHT22;7938;47.666;9.434;2022-07-05T10:19:28;23.20;99.90
15676;DHT22;7938;47.666;9.434;2022-07-05T10:21:55;23.00;99.90
15676;DHT22;7938;47.666;9.434;2022-07-05T10:24:23;23.10;99.90
15676;DHT22;7938;47.666;9.434;2022-07-05T10:26:53;23.10;99.90
15676;DHT22;7938;47.666;9.434;2022-07-05T10:29:20;23.30;99.90
15676;DHT22;7938;47.666;9.434;2022-07-05T10:31:48;23.40;99.90
15676;DHT22;7938;47.666;9.434;2022-07-05T10:34:15;23.30;99.90
15676;DHT22;7938;47.666;9.434;2022-07-05T10:36:44;23.40;99.90
15676;DHT22;7938;47.666;9.434;2022-07-05T10:39:11;23.30;99.90
15676;DHT22;7938;47.666;9.434;2022-07-05T10:41:38;23.40;99.90
15676;DHT22;7938;47.666;9.434;2022-07-05T10:44:07;23.20;99.90
15676;DHT22;7938;47.666;9.434;2022-07-05T10:46:35;23.30;99.90
15676;DHT22;7938;47.666;9.434;2022-07-05T10:49:14;23.40;99.90
15676;DHT22;7938;47.666;9.434;2022-07-05T10:51:42;23.30;99.90
15676;DHT22;7938;47.666;9.434;2022-07-05T10:54:09;23.50;99.90
15676;DHT22;7938;47.666;9.434;2022-07-05T10:56:36;23.50;99.90
15676;DHT22;7938;47.666;9.434;2022-07-05T10:59:06;23.50;99.90
15676;DHT22;7938;47.666;9.434;2022-07-05T11:01:36;23.40;99.90
15676;DHT22;7938;47.666;9.434;2022-07-05T11:04:20;23.40;99.90
15676;DHT22;7938;47.666;9.434;2022-07-05T11:06:47;23.60;99.90
15676;DHT22;7938;47.666;9.434;2022-07-05T11:09:17;23.70;99.90
15676;DHT22;7938;47.666;9.434;2022-07-05T11:11:45;23.80;99.90
15676;DHT22;7938;47.666;9.434;2022-07-05T11:14:38;23.70;99.90
15676;DHT22;7938;47.666;9.434;2022-07-05T11:17:22;23.70;99.90
15676;DHT22;7938;47.666;9.434;2022-07-05T11:20:12;23.80;99.90
15676;DHT22;7938;47.666;9.434;2022-07-05T11:22:41;23.80;99.90
15676;DHT22;7938;47.666;9.434;2022-07-05T11:25:28;23.80;99.90
15676;DHT22;7938;47.666;9.434;2022-07-05T11:28:13;23.90;99.90
15676;DHT22;7938;47.666;9.434;2022-07-05T11:30:59;23.80;99.90
15676;DHT22;7938;47.666;9.434;2022-07-05T11:33:28;23.90;99.90
15676;DHT22;7938;47.666;9.434;2022-07-05T11:35:56;24.00;99.90
15676;DHT22;7938;47.666;9.434;2022-07-05T11:38:23;23.90;99.90
15676;DHT22;7938;47.666;9.434;2022-07-05T11:40:50;24.10;99.90
15676;DHT22;7938;47.666;9.434;2022-07-05T11:43:25;24.20;99.90
15676;DHT22;7938;47.666;9.434;2022-07-05T11:45:57;24.10;99.90
15676;DHT22;7938;47.666;9.434;2022-07-05T11:48:26;24.20;99.90
15676;DHT22;7938;47.666;9.434;2022-07-05T11:50:53;24.20;99.90
15676;DHT22;7938;47.666;9.434;2022-07-05T11:53:26;24.20;99.90
15676;DHT22;7938;47.666;9.434;2022-07-05T11:55:55;24.10;99.90
15676;DHT22;7938;47.666;9.434;2022-07-05T11:58:30;24.10;99.90
15676;DHT22;7938;47.666;9.434;2022-07-05T12:00:59;24.40;99.90
15676;DHT22;7938;47.666;9.434;2022-07-05T12:03:27;24.40;99.90
15676;DHT22;7938;47.666;9.434;2022-07-05T12:05:54;24.60;99.90
15676;DHT22;7938;47.666;9.434;2022-07-05T12:08:21;24.70;99.90
15676;DHT22;7938;47.666;9.434;2022-07-05T12:10:48;24.80;99.90
15676;DHT22;7938;47.666;9.434;2022-07-05T12:13:43;24.80;99.90
15676;DHT22;7938;47.666;9.434;2022-07-05T12:16:12;24.70;99.90
15676;DHT22;7938;47.666;9.434;2022-07-05T12:18:50;24.50;99.90
15676;DHT22;7938;47.666;9.434;2022-07-05T12:21:17;24.50;99.90
15676;DHT22;7938;47.666;9.434;2022-07-05T12:23:46;24.70;99.90
15676;DHT22;7938;47.666;9.434;2022-07-05T12:26:14;24.50;99.90
15676;DHT22;7938;47.666;9.434;2022-07-05T12:28:42;24.60;99.90
15676;DHT22;7938;47.666;9.434;2022-07-05T12:31:18;24.80;99.90
15676;DHT22;7938;47.666;9.434;2022-07-05T12:33:45;24.80;99.90
15676;DHT22;7938;47.666;9.434;2022-07-05T12:36:13;24.80;99.90
15676;DHT22;7938;47.666;9.434;2022-07-05T12:38:41;25.00;99.90
15676;DHT22;7938;47.666;9.434;2022-07-05T12:41:09;24.90;99.90
15676;DHT22;7938;47.666;9.434;2022-07-05T12:43:50;24.90;99.90
15676;DHT22;7938;47.666;9.434;2022-07-05T12:46:18;25.20;99.90
15676;DHT22;7938;47.666;9.434;2022-07-05T12:48:51;25.20;99.90
15676;DHT22;7938;47.666;9.434;2022-07-05T12:51:32;25.20;99.90
15676;DHT22;7938;47.666;9.434;2022-07-05T12:53:59;25.30;99.90
15676;DHT22;7938;47.666;9.434;2022-07-05T12:56:47;25.20;99.90
15676;DHT22;7938;47.666;9.434;2022-07-05T12:59:31;25.50;99.90
15676;DHT22;7938;47.666;9.434;2022-07-05T13:01:59;25.70;99.90
15676;DHT22;7938;47.666;9.434;2022-07-05T13:04:26;25.80;97.40
15676;DHT22;7938;47.666;9.434;2022-07-05T13:06:55;25.70;98.80
15676;DHT22;7938;47.666;9.434;2022-07-05T13:09:33;25.80;97.90
15676;DHT22;7938;47.666;9.434;2022-07-05T13:12:09;25.70;99.00
15676;DHT22;7938;47.666;9.434;2022-07-05T13:14:37;25.70;97.10
15676;DHT22;7938;47.666;9.434;2022-07-05T13:17:06;25.70;98.30
15676;DHT22;7938;47.666;9.434;2022-07-05T13:19:34;25.90;97.80
15676;DHT22;7938;47.666;9.434;2022-07-05T13:22:01;26.10;96.50
15676;DHT22;7938;47.666;9.434;2022-07-05T13:24:28;26.20;93.70
15676;DHT22;7938;47.666;9.434;2022-07-05T13:26:56;26.10;93.10
15676;DHT22;7938;47.666;9.434;2022-07-05T13:29:23;26.20;93.70
15676;DHT22;7938;47.666;9.434;2022-07-05T13:31:52;26.40;93.90
15676;DHT22;7938;47.666;9.434;2022-07-05T13:34:20;26.40;94.90
15676;DHT22;7938;47.666;9.434;2022-07-05T13:36:49;26.50;93.10
15676;DHT22;7938;47.666;9.434;2022-07-05T13:39:17;26.40;92.50
15676;DHT22;7938;47.666;9.434;2022-07-05T13:41:45;26.90;94.30
15676;DHT22;7938;47.666;9.434;2022-07-05T13:44:13;27.10;93.50
15676;DHT22;7938;47.666;9.434;2022-07-05T13:46:40;27.30;94.50
15676;DHT22;7938;47.666;9.434;2022-07-05T13:49:06;27.60;93.00
15676;DHT22;7938;47.666;9.434;2022-07-05T13:51:35;28.00;93.80
15676;DHT22;7938;47.666;9.434;2022-07-05T13:54:02;28.50;94.10
15676;DHT22;7938;47.666;9.434;2022-07-05T13:56:29;29.50;91.00
15676;DHT22;7938;47.666;9.434;2022-07-05T13:58:58;30.50;85.70
15676;DHT22;7938;47.666;9.434;2022-07-05T14:01:26;31.50;89.50
15676;DHT22;7938;47.666;9.434;2022-07-05T14:03:54;32.60;85.60
15676;DHT22;7938;47.666;9.434;2022-07-05T14:06:22;33.10;82.10
15676;DHT22;7938;47.666;9.434;2022-07-05T14:08:50;33.50;80.70
15676;DHT22;7938;47.666;9.434;2022-07-05T14:11:17;34.30;80.90
15676;DHT22;7938;47.666;9.434;2022-07-05T14:13:44;34.90;74.10
15676;DHT22;7938;47.666;9.434;2022-07-05T14:16:11;35.20;72.10
15676;DHT22;7938;47.666;9.434;2022-07-05T14:18:38;35.20;69.30
15676;DHT22;7938;47.666;9.434;2022-07-05T14:21:05;35.40;65.60
15676;DHT22;7938;47.666;9.434;2022-07-05T14:23:32;35.70;68.50
15676;DHT22;7938;47.666;9.434;2022-07-05T14:26:00;37.10;63.10
15676;DHT22;7938;47.666;9.434;2022-07-05T14:28:29;36.20;64.50
15676;DHT22;7938;47.666;9.434;2022-07-05T14:30:56;36.10;66.70
15676;DHT22;7938;47.666;9.434;2022-07-05T14:33:23;36.30;64.80
15676;DHT22;7938;47.666;9.434;2022-07-05T14:35:50;35.00;65.90
15676;DHT22;7938;47.666;9.434;2022-07-05T14:38:17;35.40;70.20
15676;DHT22;7938;47.666;9.434;2022-07-05T14:40:43;35.60;65.50
15676;DHT22;7938;47.666;9.434;2022-07-05T14:43:12;35.90;66.80
15676;DHT22;7938;47.666;9.434;2022-07-05T14:45:39;35.80;67.20
15676;DHT22;7938;47.666;9.434;2022-07-05T14:48:06;36.50;66.30
15676;DHT22;7938;47.666;9.434;2022-07-05T14:50:33;37.70;62.50
15676;DHT22;7938;47.666;9.434;2022-07-05T14:52:59;38.90;59.50
15676;DHT22;7938;47.666;9.434;2022-07-05T14:55:31;37.80;64.10
15676;DHT22;7938;47.666;9.434;2022-07-05T14:57:58;38.70;59.00
15676;DHT22;7938;47.666;9.434;2022-07-05T15:00:27;38.70;58.10
15676;DHT22;7938;47.666;9.434;2022-07-05T15:02:54;38.50;56.20
15676;DHT22;7938;47.666;9.434;2022-07-05T15:05:21;37.50;55.00
15676;DHT22;7938;47.666;9.434;2022-07-05T15:07:48;37.20;57.60
15676;DHT22;7938;47.666;9.434;2022-07-05T15:10:15;37.30;57.30
15676;DHT22;7938;47.666;9.434;2022-07-05T15:12:41;37.10;58.20
15676;DHT22;7938;47.666;9.434;2022-07-05T15:15:09;37.00;56.90
15676;DHT22;7938;47.666;9.434;2022-07-05T15:17:37;36.90;58.90
15676;DHT22;7938;47.666;9.434;2022-07-05T15:20:05;37.60;57.50
15676;DHT22;7938;47.666;9.434;2022-07-05T15:22:32;38.40;55.70
15676;DHT22;7938;47.666;9.434;2022-07-05T15:24:59;37.60;56.40
15676;DHT22;7938;47.666;9.434;2022-07-05T15:27:26;38.10;55.30
15676;DHT22;7938;47.666;9.434;2022-07-05T15:29:57;38.90;54.40
15676;DHT22;7938;47.666;9.434;2022-07-05T15:32:23;39.00;52.00
15676;DHT22;7938;47.666;9.434;2022-07-05T15:34:52;39.50;52.90
15676;DHT22;7938;47.666;9.434;2022-07-05T15:37:19;39.10;51.10
15676;DHT22;7938;47.666;9.434;2022-07-05T15:39:46;37.30;55.50
15676;DHT22;7938;47.666;9.434;2022-07-05T15:42:12;36.80;58.10
15676;DHT22;7938;47.666;9.434;2022-07-05T15:44:41;37.60;56.10
15676;DHT22;7938;47.666;9.434;2022-07-05T15:47:08;38.80;56.50
15676;DHT22;7938;47.666;9.434;2022-07-05T15:49:37;39.10;53.80
15676;DHT22;7938;47.666;9.434;2022-07-05T15:52:06;39.50;51.30
15676;DHT22;7938;47.666;9.434;2022-07-05T15:54:33;38.70;53.20
15676;DHT22;7938;47.666;9.434;2022-07-05T15:57:01;38.30;53.40
15676;DHT22;7938;47.666;9.434;2022-07-05T15:59:27;39.20;53.00
15676;DHT22;7938;47.666;9.434;2022-07-05T16:01:55;39.50;53.20
15676;DHT22;7938;47.666;9.434;2022-07-05T16:04:21;40.20;50.90
15676;DHT22;7938;47.666;9.434;2022-07-05T16:06:54;40.30;49.00
15676;DHT22;7938;47.666;9.434;2022-07-05T16:09:23;39.20;49.30
15676;DHT22;7938;47.666;9.434;2022-07-05T16:11:50;38.00;50.70
15676;DHT22;7938;47.666;9.434;2022-07-05T16:14:17;37.20;51.90
15676;DHT22;7938;47.666;9.434;2022-07-05T16:16:44;37.90;51.90
15676;DHT22;7938;47.666;9.434;2022-07-05T16:19:10;37.40;51.40
15676;DHT22;7938;47.666;9.434;2022-07-05T16:21:37;37.70;52.00
15676;DHT22;7938;47.666;9.434;2022-07-05T16:24:05;36.40;53.90
15676;DHT22;7938;47.666;9.434;2022-07-05T16:26:33;37.40;51.90
15676;DHT22;7938;47.666;9.434;2022-07-05T16:29:00;38.10;50.80
15676;DHT22;7938;47.666;9.434;2022-07-05T16:31:27;38.50;51.10
15676;DHT22;7938;47.666;9.434;2022-07-05T16:33:54;39.30;49.40
15676;DHT22;7938;47.666;9.434;2022-07-05T16:36:22;39.20;49.80
15676;DHT22;7938;47.666;9.434;2022-07-05T16:38:50;39.20;51.20
15676;DHT22;7938;47.666;9.434;2022-07-05T16:41:19;39.60;48.60
15676;DHT22;7938;47.666;9.434;2022-07-05T16:43:47;40.00;53.60
15676;DHT22;7938;47.666;9.434;2022-07-05T16:46:16;40.40;50.30
15676;DHT22;7938;47.666;9.434;2022-07-05T16:48:44;39.50;50.10
15676;DHT22;7938;47.666;9.434;2022-07-05T16:51:12;39.90;51.30
15676;DHT22;7938;47.666;9.434;2022-07-05T16:53:39;39.30;50.80
15676;DHT22;7938;47.666;9.434;2022-07-05T16:56:07;39.70;51.00
15676;DHT22;7938;47.666;9.434;2022-07-05T16:58:36;39.20;51.50
15676;DHT22;7938;47.666;9.434;2022-07-05T17:01:05;39.50;49.10
15676;DHT22;7938;47.666;9.434;2022-07-05T17:03:34;39.00;51.60
15676;DHT22;7938;47.666;9.434;2022-07-05T17:06:01;39.20;49.70
15676;DHT22;7938;47.666;9.434;2022-07-05T17:08:29;39.60;51.30
15676;DHT22;7938;47.666;9.434;2022-07-05T17:10:56;39.40;50.90
15676;DHT22;7938;47.666;9.434;2022-07-05T17:13:23;39.30;52.10
15676;DHT22;7938;47.666;9.434;2022-07-05T17:15:50;39.10;50.10
15676;DHT22;7938;47.666;9.434;2022-07-05T17:18:18;39.00;50.60
15676;DHT22;7938;47.666;9.434;2022-07-05T17:20:45;38.50;50.70
15676;DHT22;7938;47.666;9.434;2022-07-05T17:23:12;38.20;52.50
15676;DHT22;7938;47.666;9.434;2022-07-05T17:25:39;38.20;53.50
15676;DHT22;7938;47.666;9.434;2022-07-05T17:28:06;38.30;52.60
15676;DHT22;7938;47.666;9.434;2022-07-05T17:30:34;38.50;53.70
15676;DHT22;7938;47.666;9.434;2022-07-05T17:33:01;38.40;52.30
15676;DHT22;7938;47.666;9.434;2022-07-05T17:35:29;38.30;53.10
15676;DHT22;7938;47.666;9.434;2022-07-05T17:37:56;38.10;53.50
15676;DHT22;7938;47.666;9.434;2022-07-05T17:40:23;38.00;51.80
15676;DHT22;7938;47.666;9.434;2022-07-05T17:42:50;38.10;53.60
15676;DHT22;7938;47.666;9.434;2022-07-05T17:45:18;38.00;53.90
15676;DHT22;7938;47.666;9.434;2022-07-05T17:47:45;37.90;52.60
15676;DHT22;7938;47.666;9.434;2022-07-05T17:50:12;37.40;52.90
15676;DHT22;7938;47.666;9.434;2022-07-05T17:52:41;37.00;53.70
15676;DHT22;7938;47.666;9.434;2022-07-05T17:55:08;36.80;53.90
15676;DHT22;7938;47.666;9.434;2022-07-05T17:57:35;36.30;55.60
15676;DHT22;7938;47.666;9.434;2022-07-05T18:00:03;36.20;54.50
15676;DHT22;7938;47.666;9.434;2022-07-05T18:02:30;35.90;57.20
15676;DHT22;7938;47.666;9.434;2022-07-05T18:04:57;35.50;57.00
15676;DHT22;7938;47.666;9.434;2022-07-05T18:07:24;34.30;60.40
15676;DHT22;7938;47.666;9.434;2022-07-05T18:09:52;32.70;61.50
15676;DHT22;7938;47.666;9.434;2022-07-05T18:12:19;31.10;63.30
15676;DHT22;7938;47.666;9.434;2022-07-05T18:14:46;29.90;66.60
15676;DHT22;7938;47.666;9.434;2022-07-05T18:17:13;28.90;70.00
15676;DHT22;7938;47.666;9.434;2022-07-05T18:19:40;28.20;70.20
15676;DHT22;7938;47.666;9.434;2022-07-05T18:22:07;27.50;72.40
15676;DHT22;7938;47.666;9.434;2022-07-05T18:24:34;27.10;76.40
15676;DHT22;7938;47.666;9.434;2022-07-05T18:27:03;26.70;80.80
15676;DHT22;7938;47.666;9.434;2022-07-05T18:29:30;26.30;83.20
15676;DHT22;7938;47.666;9.434;2022-07-05T18:31:58;25.80;85.60
15676;DHT22;7938;47.666;9.434;2022-07-05T18:34:25;25.50;84.80
15676;DHT22;7938;47.666;9.434;2022-07-05T18:36:52;25.10;87.70
15676;DHT22;7938;47.666;9.434;2022-07-05T18:39:19;24.70;89.00
15676;DHT22;7938;47.666;9.434;2022-07-05T18:41:48;24.40;90.10
15676;DHT22;7938;47.666;9.434;2022-07-05T18:44:16;24.10;91.50
15676;DHT22;7938;47.666;9.434;2022-07-05T18:46:43;23.90;91.60
15676;DHT22;7938;47.666;9.434;2022-07-05T18:49:10;23.70;92.20
15676;DHT22;7938;47.666;9.434;2022-07-05T18:51:37;23.50;92.20
15676;DHT22;7938;47.666;9.434;2022-07-05T18:54:04;23.30;92.00
15676;DHT22;7938;47.666;9.434;2022-07-05T18:56:31;23.10;92.00
15676;DHT22;7938;47.666;9.434;2022-07-05T18:58:59;23.00;92.20
15676;DHT22;7938;47.666;9.434;2022-07-05T19:01:27;22.80;91.70
15676;DHT22;7938;47.666;9.434;2022-07-05T19:03:54;22.70;91.70
15676;DHT22;7938;47.666;9.434;2022-07-05T19:06:22;22.60;91.10
15676;DHT22;7938;47.666;9.434;2022-07-05T19:09:06;22.50;91.50
15676;DHT22;7938;47.666;9.434;2022-07-05T19:11:50;22.40;91.30
15676;DHT22;7938;47.666;9.434;2022-07-05T19:14:35;22.30;92.40
15676;DHT22;7938;47.666;9.434;2022-07-05T19:17:03;22.20;92.70
15676;DHT22;7938;47.666;9.434;2022-07-05T19:19:30;22.20;92.60
15676;DHT22;7938;47.666;9.434;2022-07-05T19:21:57;22.20;92.80
15676;DHT22;7938;47.666;9.434;2022-07-05T19:24:24;22.20;92.20
15676;DHT22;7938;47.666;9.434;2022-07-05T19:26:51;22.10;92.90
15676;DHT22;7938;47.666;9.434;2022-07-05T19:29:18;22.10;92.60
15676;DHT22;7938;47.666;9.434;2022-07-05T19:31:45;22.00;93.00
15676;DHT22;7938;47.666;9.434;2022-07-05T19:34:13;21.90;93.30
15676;DHT22;7938;47.666;9.434;2022-07-05T19:36:40;21.90;94.60
15676;DHT22;7938;47.666;9.434;2022-07-05T19:39:08;21.90;95.40
15676;DHT22;7938;47.666;9.434;2022-07-05T19:41:35;21.80;96.00
15676;DHT22;7938;47.666;9.434;2022-07-05T19:44:02;21.80;96.00
15676;DHT22;7938;47.666;9.434;2022-07-05T19:46:29;21.80;96.10
15676;DHT22;7938;47.666;9.434;2022-07-05T19:48:56;22.00;95.90
15676;DHT22;7938;47.666;9.434;2022-07-05T19:51:24;22.10;95.40
15676;DHT22;7938;47.666;9.434;2022-07-05T19:53:51;21.50;95.40